sensor_id;sensor_type;location;lat;lon;timestamp;pressure;altitude;pressure_sealevel;temperature;humidity
48652;BME280;34442;52.362;-1.302;2023-05-19T00:00:01;101338.19;;;16.31;91.46
48652;BME280;34442;52.362;-1.302;2023-05-19T00:02:28;101345.94;;;16.28;92.42
48652;BME280;34442;52.362;-1.302;2023-05-19T00:04:59;101350.09;;;16.30;92.12
48652;BME280;34442;52.362;-1.302;2023-05-19T00:07:29;101353.66;;;16.31;92.73
48652;BME280;34442;52.362;-1.302;2023-05-19T00:09:55;101355.16;;;16.27;92.11
48652;BME280;34442;52.362;-1.302;2023-05-19T00:12:20;101352.88;;;16.24;92.90
48652;BME280;34442;52.362;-1.302;2023-05-19T00:14:46;101350.59;;;16.21;92.72
48652;BME280;34442;52.362;-1.302;2023-05-19T00:17:12;101350.41;;;16.16;93.16
48652;BME280;34442;52.362;-1.302;2023-05-19T00:19:37;101342.50;;;16.14;93.56
48652;BME280;34442;52.362;-1.302;2023-05-19T00:22:03;101350.03;;;16.12;93.58
48652;BME280;34442;52.362;-1.302;2023-05-19T00:24:29;101346.88;;;16.15;93.40
48652;BME280;34442;52.362;-1.302;2023-05-19T00:26:54;101347.69;;;16.16;93.91
48652;BME280;34442;52.362;-1.302;2023-05-19T00:29:20;101349.34;;;16.17;94.01
48652;BME280;34442;52.362;-1.302;2023-05-19T00:31:45;101355.41;;;16.19;93.40
48652;BME280;34442;52.362;-1.302;2023-05-19T00:34:11;101349.34;;;16.17;93.75
48652;BME280;34442;52.362;-1.302;2023-05-19T00:36:36;101348.75;;;16.15;94.03
48652;BME280;34442;52.362;-1.302;2023-05-19T00:39:02;101347.78;;;16.09;94.18
48652;BME280;34442;52.362;-1.302;2023-05-19T00:41:27;101341.94;;;16.05;94.65
48652;BME280;34442;52.362;-1.302;2023-05-19T00:43:53;101354.28;;;16.01;94.74
48652;BME280;34442;52.362;-1.302;2023-05-19T00:46:19;101355.31;;;16.00;94.73
48652;BME280;34442;52.362;-1.302;2023-05-19T00:48:44;101361.19;;;15.97;95.52
48652;BME280;34442;52.362;-1.302;2023-05-19T00:51:10;101364.72;;;15.98;95.13
48652;BME280;34442;52.362;-1.302;2023-05-19T00:53:39;101361.84;;;15.93;95.44
48652;BME280;34442;52.362;-1.302;2023-05-19T00:56:04;101362.44;;;15.95;95.71
48652;BME280;34442;52.362;-1.302;2023-05-19T00:58:30;101364.56;;;15.93;95.59
48652;BME280;34442;52.362;-1.302;2023-05-19T01:00:58;101366.03;;;15.88;95.94
48652;BME280;34442;52.362;-1.302;2023-05-19T01:03:35;101367.06;;;15.87;96.62
48652;BME280;34442;52.362;-1.302;2023-05-19T01:06:02;101366.91;;;15.82;96.80
48652;BME280;34442;52.362;-1.302;2023-05-19T01:08:31;101370.03;;;15.79;97.58
48652;BME280;34442;52.362;-1.302;2023-05-19T01:10:56;101358.38;;;15.79;97.93
48652;BME280;34442;52.362;-1.302;2023-05-19T01:13:22;101369.00;;;15.80;97.68
48652;BME280;34442;52.362;-1.302;2023-05-19T01:16:13;101358.75;;;15.82;100.00
48652;BME280;34442;52.362;-1.302;2023-05-19T01:19:24;101362.09;;;15.84;99.65
48652;BME280;34442;52.362;-1.302;2023-05-19T01:27:42;101357.81;;;15.57;100.00
48652;BME280;34442;52.362;-1.302;2023-05-19T01:30:36;101346.19;;;15.50;100.00
48652;BME280;34442;52.362;-1.302;2023-05-19T01:33:06;101345.75;;;15.53;99.55
48652;BME280;34442;52.362;-1.302;2023-05-19T01:35:35;101348.69;;;15.51;99.44
48652;BME280;34442;52.362;-1.302;2023-05-19T01:38:01;101351.81;;;15.48;99.94
48652;BME280;34442;52.362;-1.302;2023-05-19T01:40:27;101353.31;;;15.37;100.00
48652;BME280;34442;52.362;-1.302;2023-05-19T01:42:56;101350.41;;;15.39;100.00
48652;BME280;34442;52.362;-1.302;2023-05-19T01:45:22;101357.09;;;15.30;100.00
48652;BME280;34442;52.362;-1.302;2023-05-19T01:47:52;101362.53;;;15.23;100.00
48652;BME280;34442;52.362;-1.302;2023-05-19T01:50:18;101361.94;;;15.14;100.00
48652;BME280;34442;52.362;-1.302;2023-05-19T01:52:43;101357.13;;;15.10;100.00
48652;BME280;34442;52.362;-1.302;2023-05-19T01:55:09;101359.84;;;15.17;100.00
48652;BME280;34442;52.362;-1.302;2023-05-19T02:00:28;101373.84;;;15.07;100.00
48652;BME280;34442;52.362;-1.302;2023-05-19T02:05:38;101371.38;;;14.85;100.00
48652;BME280;34442;52.362;-1.302;2023-05-19T02:08:23;101368.25;;;14.75;100.00
48652;BME280;34442;52.362;-1.302;2023-05-19T02:10:59;101365.97;;;14.72;100.00
48652;BME280;34442;52.362;-1.302;2023-05-19T02:13:32;101368.91;;;14.77;100.00
48652;BME280;34442;52.362;-1.302;2023-05-19T02:16:04;101362.22;;;14.80;100.00
48652;BME280;34442;52.362;-1.302;2023-05-19T02:18:31;101374.69;;;14.81;100.00
48652;BME280;34442;52.362;-1.302;2023-05-19T02:20:57;101362.84;;;14.75;100.00
48652;BME280;34442;52.362;-1.302;2023-05-19T02:23:23;101363.91;;;14.74;100.00
48652;BME280;34442;52.362;-1.302;2023-05-19T02:25:48;101369.50;;;14.73;100.00
48652;BME280;34442;52.362;-1.302;2023-05-19T02:28:14;101362.84;;;14.69;100.00
48652;BME280;34442;52.362;-1.302;2023-05-19T02:30:40;101354.94;;;14.67;100.00
48652;BME280;34442;52.362;-1.302;2023-05-19T02:33:05;101366.59;;;14.68;100.00
48652;BME280;34442;52.362;-1.302;2023-05-19T02:35:31;101351.81;;;14.63;100.00
48652;BME280;34442;52.362;-1.302;2023-05-19T02:38:00;101359.50;;;14.60;100.00
48652;BME280;34442;52.362;-1.302;2023-05-19T02:40:25;101364.09;;;14.59;100.00
48652;BME280;34442;52.362;-1.302;2023-05-19T02:42:51;101370.97;;;14.62;100.00
48652;BME280;34442;52.362;-1.302;2023-05-19T02:45:16;101358.28;;;14.62;100.00
48652;BME280;34442;52.362;-1.302;2023-05-19T02:47:42;101355.16;;;14.59;100.00
48652;BME280;34442;52.362;-1.302;2023-05-19T02:50:07;101351.84;;;14.57;100.00
48652;BME280;34442;52.362;-1.302;2023-05-19T02:52:33;101344.94;;;14.28;100.00
48652;BME280;34442;52.362;-1.302;2023-05-19T02:54:58;101352.63;;;14.37;100.00
48652;BME280;34442;52.362;-1.302;2023-05-19T02:57:24;101351.38;;;14.47;100.00
48652;BME280;34442;52.362;-1.302;2023-05-19T02:59:50;101343.47;;;14.45;100.00
48652;BME280;34442;52.362;-1.302;2023-05-19T03:02:16;101342.66;;;14.51;100.00
48652;BME280;34442;52.362;-1.302;2023-05-19T03:04:41;101340.59;;;14.53;100.00
48652;BME280;34442;52.362;-1.302;2023-05-19T03:07:07;101339.53;;;14.54;100.00
48652;BME280;34442;52.362;-1.302;2023-05-19T03:09:39;101335.19;;;14.53;100.00
48652;BME280;34442;52.362;-1.302;2023-05-19T03:12:05;101328.72;;;14.54;100.00
48652;BME280;34442;52.362;-1.302;2023-05-19T03:14:32;101332.25;;;14.55;100.00
48652;BME280;34442;52.362;-1.302;2023-05-19T03:16:58;101326.44;;;14.51;100.00
48652;BME280;34442;52.362;-1.302;2023-05-19T03:19:24;101326.84;;;14.55;100.00
48652;BME280;34442;52.362;-1.302;2023-05-19T03:21:49;101320.81;;;14.53;100.00
48652;BME280;34442;52.362;-1.302;2023-05-19T03:24:15;101326.84;;;14.55;100.00
48652;BME280;34442;52.362;-1.302;2023-05-19T03:26:41;101325.19;;;14.54;100.00
48652;BME280;34442;52.362;-1.302;2023-05-19T03:29:07;101331.66;;;14.53;100.00
48652;BME280;34442;52.362;-1.302;2023-05-19T03:31:32;101329.56;;;14.55;100.00
48652;BME280;34442;52.362;-1.302;2023-05-19T03:33:57;101319.78;;;14.54;100.00
48652;BME280;34442;52.362;-1.302;2023-05-19T03:36:23;101331.66;;;14.53;100.00
48652;BME280;34442;52.362;-1.302;2023-05-19T03:38:48;101328.31;;;14.51;100.00
48652;BME280;34442;52.362;-1.302;2023-05-19T03:41:14;101335.59;;;14.50;100.00
48652;BME280;34442;52.362;-1.302;2023-05-19T03:43:39;101337.25;;;14.45;100.00
48652;BME280;34442;52.362;-1.302;2023-05-19T03:46:05;101343.88;;;14.42;100.00
48652;BME280;34442;52.362;-1.302;2023-05-19T03:48:30;101344.75;;;14.36;100.00
48652;BME280;34442;52.362;-1.302;2023-05-19T03:50:55;101345.16;;;14.33;100.00
48652;BME280;34442;52.362;-1.302;2023-05-19T03:53:22;101345.78;;;14.28;100.00
48652;BME280;34442;52.362;-1.302;2023-05-19T03:55:48;101350.34;;;14.21;100.00
48652;BME280;34442;52.362;-1.302;2023-05-19T03:58:14;101346.56;;;14.22;100.00
48652;BME280;34442;52.362;-1.302;2023-05-19T04:00:40;101346.78;;;14.21;100.00
48652;BME280;34442;52.362;-1.302;2023-05-19T04:03:05;101340.13;;;14.10;100.00
48652;BME280;34442;52.362;-1.302;2023-05-19T04:05:32;101348.44;;;14.02;100.00
48652;BME280;34442;52.362;-1.302;2023-05-19T04:07:57;101357.16;;;13.97;100.00
48652;BME280;34442;52.362;-1.302;2023-05-19T04:10:23;101365.25;;;13.84;100.00
48652;BME280;34442;52.362;-1.302;2023-05-19T04:12:48;101369.56;;;13.78;100.00
48652;BME280;34442;52.362;-1.302;2023-05-19T04:15:13;101366.69;;;13.80;100.00
48652;BME280;34442;52.362;-1.302;2023-05-19T04:17:39;101364.84;;;13.87;100.00
48652;BME280;34442;52.362;-1.302;2023-05-19T04:20:05;101363.59;;;13.83;100.00
48652;BME280;34442;52.362;-1.302;2023-05-19T04:22:31;101370.63;;;13.77;100.00
48652;BME280;34442;52.362;-1.302;2023-05-19T04:24:56;101378.31;;;13.80;100.00
48652;BME280;34442;52.362;-1.302;2023-05-19T04:27:22;101374.16;;;13.78;100.00
48652;BME280;34442;52.362;-1.302;2023-05-19T04:29:48;101375.84;;;13.79;100.00
48652;BME280;34442;52.362;-1.302;2023-05-19T04:32:14;101369.16;;;13.75;100.00
48652;BME280;34442;52.362;-1.302;2023-05-19T04:34:42;101377.47;;;13.67;100.00
48652;BME280;34442;52.362;-1.302;2023-05-19T04:37:11;101374.56;;;13.81;100.00
48652;BME280;34442;52.362;-1.302;2023-05-19T04:39:36;101370.81;;;13.82;100.00
48652;BME280;34442;52.362;-1.302;2023-05-19T04:42:07;101368.81;;;13.91;100.00
48652;BME280;34442;52.362;-1.302;2023-05-19T04:44:34;101362.97;;;13.94;100.00
48652;BME280;34442;52.362;-1.302;2023-05-19T04:47:00;101360.50;;;13.99;100.00
48652;BME280;34442;52.362;-1.302;2023-05-19T04:49:25;101352.41;;;13.99;100.00
48652;BME280;34442;52.362;-1.302;2023-05-19T04:51:51;101350.09;;;13.96;100.00
48652;BME280;34442;52.362;-1.302;2023-05-19T04:54:17;101348.00;;;13.98;100.00
48652;BME280;34442;52.362;-1.302;2023-05-19T04:56:42;101351.97;;;14.02;100.00
48652;BME280;34442;52.362;-1.302;2023-05-19T04:59:08;101341.97;;;14.03;100.00
48652;BME280;34442;52.362;-1.302;2023-05-19T05:01:34;101334.28;;;14.00;100.00
48652;BME280;34442;52.362;-1.302;2023-05-19T05:04:05;101334.91;;;14.02;100.00
48652;BME280;34442;52.362;-1.302;2023-05-19T05:06:31;101335.53;;;13.97;100.00
48652;BME280;34442;52.362;-1.302;2023-05-19T05:08:56;101330.53;;;14.01;100.00
48652;BME280;34442;52.362;-1.302;2023-05-19T05:11:22;101330.53;;;14.01;100.00
48652;BME280;34442;52.362;-1.302;2023-05-19T05:13:48;101326.59;;;14.03;100.00
48652;BME280;34442;52.362;-1.302;2023-05-19T05:16:13;101329.31;;;14.03;100.00
48652;BME280;34442;52.362;-1.302;2023-05-19T05:18:39;101332.81;;;13.97;100.00
48652;BME280;34442;52.362;-1.302;2023-05-19T05:21:05;101337.19;;;13.98;100.00
48652;BME280;34442;52.362;-1.302;2023-05-19T05:23:31;101344.69;;;14.03;100.00
48652;BME280;34442;52.362;-1.302;2023-05-19T05:25:57;101358.38;;;13.95;100.00
48652;BME280;34442;52.362;-1.302;2023-05-19T05:28:22;101365.44;;;13.89;100.00
48652;BME280;34442;52.362;-1.302;2023-05-19T05:30:48;101357.13;;;13.84;100.00
48652;BME280;34442;52.362;-1.302;2023-05-19T05:33:15;101357.13;;;13.84;100.00
48652;BME280;34442;52.362;-1.302;2023-05-19T05:35:40;101358.78;;;13.85;100.00
48652;BME280;34442;52.362;-1.302;2023-05-19T05:38:06;101358.38;;;13.88;100.00
48652;BME280;34442;52.362;-1.302;2023-05-19T05:40:32;101354.66;;;13.96;100.00
48652;BME280;34442;52.362;-1.302;2023-05-19T05:42:57;101361.94;;;14.02;100.00
48652;BME280;34442;52.362;-1.302;2023-05-19T05:45:23;101358.84;;;14.11;100.00
48652;BME280;34442;52.362;-1.302;2023-05-19T05:47:49;101360.31;;;14.14;100.00
48652;BME280;34442;52.362;-1.302;2023-05-19T05:50:18;101356.97;;;14.19;100.00
48652;BME280;34442;52.362;-1.302;2023-05-19T05:52:47;101357.41;;;14.22;100.00
48652;BME280;34442;52.362;-1.302;2023-05-19T05:55:13;101363.22;;;14.26;100.00
48652;BME280;34442;52.362;-1.302;2023-05-19T05:57:39;101362.41;;;14.25;100.00
48652;BME280;34442;52.362;-1.302;2023-05-19T06:00:08;101365.09;;;14.25;100.00
48652;BME280;34442;52.362;-1.302;2023-05-19T06:02:44;101369.66;;;14.18;100.00
48652;BME280;34442;52.362;-1.302;2023-05-19T06:05:13;101364.25;;;14.18;100.00
48652;BME280;34442;52.362;-1.302;2023-05-19T06:07:39;101355.09;;;14.12;100.00
48652;BME280;34442;52.362;-1.302;2023-05-19T06:10:06;101363.84;;;14.14;100.00
48652;BME280;34442;52.362;-1.302;2023-05-19T06:12:31;101374.25;;;14.18;100.00
48652;BME280;34442;52.362;-1.302;2023-05-19T06:14:57;101373.44;;;14.24;100.00
48652;BME280;34442;52.362;-1.302;2023-05-19T06:17:22;101369.88;;;14.23;100.00
48652;BME280;34442;52.362;-1.302;2023-05-19T06:19:47;101360.75;;;14.24;100.00
48652;BME280;34442;52.362;-1.302;2023-05-19T06:22:13;101362.81;;;14.22;100.00
48652;BME280;34442;52.362;-1.302;2023-05-19T06:24:38;101359.28;;;14.28;100.00
48652;BME280;34442;52.362;-1.302;2023-05-19T06:27:04;101371.78;;;14.36;100.00
48652;BME280;34442;52.362;-1.302;2023-05-19T06:29:29;101369.28;;;14.41;100.00
48652;BME280;34442;52.362;-1.302;2023-05-19T06:31:55;101372.63;;;14.36;100.00
48652;BME280;34442;52.362;-1.302;2023-05-19T06:34:20;101374.91;;;14.33;100.00
48652;BME280;34442;52.362;-1.302;2023-05-19T06:36:45;101382.78;;;14.34;100.00
48652;BME280;34442;52.362;-1.302;2023-05-19T06:39:11;101377.59;;;14.46;100.00
48652;BME280;34442;52.362;-1.302;2023-05-19T06:41:36;101381.97;;;14.47;100.00
48652;BME280;34442;52.362;-1.302;2023-05-19T06:44:03;101386.78;;;14.45;100.00
48652;BME280;34442;52.362;-1.302;2023-05-19T06:46:28;101398.00;;;14.42;100.00
48652;BME280;34442;52.362;-1.302;2023-05-19T06:48:53;101387.59;;;14.46;100.00
48652;BME280;34442;52.362;-1.302;2023-05-19T06:51:19;101395.28;;;14.29;100.00
48652;BME280;34442;52.362;-1.302;2023-05-19T06:53:49;101405.03;;;14.23;100.00
48652;BME280;34442;52.362;-1.302;2023-05-19T06:56:14;101406.94;;;14.43;100.00
48652;BME280;34442;52.362;-1.302;2023-05-19T06:58:40;101399.28;;;14.59;100.00
48652;BME280;34442;52.362;-1.302;2023-05-19T07:01:05;101405.53;;;14.53;100.00
48652;BME280;34442;52.362;-1.302;2023-05-19T07:03:31;101401.78;;;14.87;100.00
48652;BME280;34442;52.362;-1.302;2023-05-19T07:05:56;101400.09;;;15.00;100.00
48652;BME280;34442;52.362;-1.302;2023-05-19T07:08:22;101408.00;;;15.08;100.00
48652;BME280;34442;52.362;-1.302;2023-05-19T07:10:47;101415.09;;;14.96;100.00
48652;BME280;34442;52.362;-1.302;2023-05-19T07:13:15;101413.84;;;14.92;100.00
48652;BME280;34442;52.362;-1.302;2023-05-19T07:15:41;101416.53;;;15.11;100.00
48652;BME280;34442;52.362;-1.302;2023-05-19T07:18:06;101420.28;;;15.10;100.00
48652;BME280;34442;52.362;-1.302;2023-05-19T07:20:32;101423.84;;;15.11;100.00
48652;BME280;34442;52.362;-1.302;2023-05-19T07:22:57;101427.97;;;15.20;100.00
48652;BME280;34442;52.362;-1.302;2023-05-19T07:25:23;101429.03;;;15.12;100.00
48652;BME280;34442;52.362;-1.302;2023-05-19T07:27:50;101430.28;;;15.23;100.00
48652;BME280;34442;52.362;-1.302;2023-05-19T07:30:15;101431.06;;;15.30;100.00
48652;BME280;34442;52.362;-1.302;2023-05-19T07:32:43;101430.03;;;15.18;100.00
48652;BME280;34442;52.362;-1.302;2023-05-19T07:35:12;101426.97;;;15.14;100.00
48652;BME280;34442;52.362;-1.302;2023-05-19T07:37:38;101434.44;;;15.06;100.00
48652;BME280;34442;52.362;-1.302;2023-05-19T07:40:04;101427.41;;;14.98;100.00
48652;BME280;34442;52.362;-1.302;2023-05-19T07:42:32;101422.41;;;15.02;100.00
48652;BME280;34442;52.362;-1.302;2023-05-19T07:44:57;101416.75;;;15.03;100.00
48652;BME280;34442;52.362;-1.302;2023-05-19T07:47:23;101412.38;;;15.09;100.00
48652;BME280;34442;52.362;-1.302;2023-05-19T07:49:48;101411.53;;;15.08;100.00
48652;BME280;34442;52.362;-1.302;2023-05-19T07:52:13;101413.19;;;15.23;100.00
48652;BME280;34442;52.362;-1.302;2023-05-19T07:54:39;101408.81;;;15.15;100.00
48652;BME280;34442;52.362;-1.302;2023-05-19T07:57:04;101410.66;;;15.21;100.00
48652;BME280;34442;52.362;-1.302;2023-05-19T07:59:30;101413.41;;;15.08;100.00
48652;BME280;34442;52.362;-1.302;2023-05-19T08:01:55;101411.28;;;15.30;100.00
48652;BME280;34442;52.362;-1.302;2023-05-19T08:04:21;101403.31;;;15.48;100.00
48652;BME280;34442;52.362;-1.302;2023-05-19T08:06:46;101404.56;;;15.52;100.00
48652;BME280;34442;52.362;-1.302;2023-05-19T08:09:11;101416.59;;;15.63;100.00
48652;BME280;34442;52.362;-1.302;2023-05-19T08:11:37;101419.06;;;15.78;100.00
48652;BME280;34442;52.362;-1.302;2023-05-19T08:14:02;101426.38;;;15.77;100.00
48652;BME280;34442;52.362;-1.302;2023-05-19T08:16:28;101417.59;;;15.82;100.00
48652;BME280;34442;52.362;-1.302;2023-05-19T08:18:53;101412.72;;;15.97;100.00
48652;BME280;34442;52.362;-1.302;2023-05-19T08:21:20;101413.94;;;16.33;100.00
48652;BME280;34442;52.362;-1.302;2023-05-19T08:23:45;101401.56;;;16.12;100.00
48652;BME280;34442;52.362;-1.302;2023-05-19T08:26:11;101411.38;;;16.13;100.00
48652;BME280;34442;52.362;-1.302;2023-05-19T08:28:37;101401.03;;;16.28;100.00
48652;BME280;34442;52.362;-1.302;2023-05-19T08:31:02;101400.38;;;16.33;100.00
48652;BME280;34442;52.362;-1.302;2023-05-19T08:33:28;101399.91;;;16.43;100.00
48652;BME280;34442;52.362;-1.302;2023-05-19T08:35:55;101390.09;;;16.42;100.00
48652;BME280;34442;52.362;-1.302;2023-05-19T08:38:23;101393.75;;;16.54;100.00
48652;BME280;34442;52.362;-1.302;2023-05-19T08:40:48;101390.31;;;16.65;100.00
48652;BME280;34442;52.362;-1.302;2023-05-19T08:43:14;101391.09;;;16.72;100.00
48652;BME280;34442;52.362;-1.302;2023-05-19T08:45:43;101395.47;;;16.98;100.00
48652;BME280;34442;52.362;-1.302;2023-05-19T08:48:13;101398.69;;;17.32;100.00
48652;BME280;34442;52.362;-1.302;2023-05-19T08:50:55;101398.16;;;17.78;100.00
48652;BME280;34442;52.362;-1.302;2023-05-19T08:53:26;101405.44;;;17.96;100.00
48652;BME280;34442;52.362;-1.302;2023-05-19T08:56:21;101402.59;;;17.73;95.75
48652;BME280;34442;52.362;-1.302;2023-05-19T08:58:48;101403.88;;;17.70;100.00
48652;BME280;34442;52.362;-1.302;2023-05-19T09:01:15;101408.81;;;17.61;100.00
48652;BME280;34442;52.362;-1.302;2023-05-19T09:03:42;101410.19;;;18.01;100.00
48652;BME280;34442;52.362;-1.302;2023-05-19T09:06:09;101392.63;;;18.15;100.00
48652;BME280;34442;52.362;-1.302;2023-05-19T09:08:37;101396.00;;;18.41;100.00
48652;BME280;34442;52.362;-1.302;2023-05-19T09:11:02;101397.50;;;18.78;99.22
48652;BME280;34442;52.362;-1.302;2023-05-19T09:13:28;101395.34;;;18.69;99.61
48652;BME280;34442;52.362;-1.302;2023-05-19T09:15:55;101403.19;;;18.35;99.36
48652;BME280;34442;52.362;-1.302;2023-05-19T09:18:23;101391.47;;;18.34;95.85
48652;BME280;34442;52.362;-1.302;2023-05-19T09:20:49;101390.44;;;18.47;98.39
48652;BME280;34442;52.362;-1.302;2023-05-19T09:23:16;101390.13;;;18.67;97.43
48652;BME280;34442;52.362;-1.302;2023-05-19T09:25:49;101393.81;;;18.96;94.10
48652;BME280;34442;52.362;-1.302;2023-05-19T09:28:29;101393.84;;;18.84;91.29
48652;BME280;34442;52.362;-1.302;2023-05-19T09:31:05;101393.00;;;19.07;93.83
48652;BME280;34442;52.362;-1.302;2023-05-19T09:33:33;101391.28;;;19.42;94.37
48652;BME280;34442;52.362;-1.302;2023-05-19T09:35:59;101386.69;;;19.42;93.65
48652;BME280;34442;52.362;-1.302;2023-05-19T09:38:28;101382.56;;;19.04;94.79
48652;BME280;34442;52.362;-1.302;2023-05-19T09:40:58;101386.22;;;18.63;94.65
48652;BME280;34442;52.362;-1.302;2023-05-19T09:43:28;101395.16;;;18.28;95.16
48652;BME280;34442;52.362;-1.302;2023-05-19T09:45:57;101393.94;;;17.82;98.35
48652;BME280;34442;52.362;-1.302;2023-05-19T09:48:25;101390.06;;;17.72;97.99
48652;BME280;34442;52.362;-1.302;2023-05-19T09:50:50;101397.41;;;17.53;98.96
48652;BME280;34442;52.362;-1.302;2023-05-19T09:53:17;101395.91;;;17.39;98.35
48652;BME280;34442;52.362;-1.302;2023-05-19T09:55:42;101406.31;;;17.23;99.03
48652;BME280;34442;52.362;-1.302;2023-05-19T09:58:08;101402.88;;;16.91;99.17
48652;BME280;34442;52.362;-1.302;2023-05-19T10:00:34;101410.00;;;17.10;98.39
48652;BME280;34442;52.362;-1.302;2023-05-19T10:03:02;101403.44;;;17.00;98.54
48652;BME280;34442;52.362;-1.302;2023-05-19T10:05:29;101398.16;;;17.23;96.64
48652;BME280;34442;52.362;-1.302;2023-05-19T10:07:55;101398.22;;;17.35;95.13
48652;BME280;34442;52.362;-1.302;2023-05-19T10:10:21;101402.31;;;17.44;95.04
48652;BME280;34442;52.362;-1.302;2023-05-19T10:12:47;101400.50;;;17.38;95.29
48652;BME280;34442;52.362;-1.302;2023-05-19T10:15:15;101391.75;;;17.54;94.36
48652;BME280;34442;52.362;-1.302;2023-05-19T10:17:42;101394.03;;;17.69;93.42
48652;BME280;34442;52.362;-1.302;2023-05-19T10:20:13;101396.47;;;17.77;92.65
48652;BME280;34442;52.362;-1.302;2023-05-19T10:22:40;101396.84;;;17.99;92.28
48652;BME280;34442;52.362;-1.302;2023-05-19T10:25:07;101385.16;;;18.10;91.54
48652;BME280;34442;52.362;-1.302;2023-05-19T10:27:35;101391.25;;;18.24;91.46
48652;BME280;34442;52.362;-1.302;2023-05-19T10:30:07;101393.34;;;18.22;88.72
48652;BME280;34442;52.362;-1.302;2023-05-19T10:32:34;101389.53;;;18.53;84.15
48652;BME280;34442;52.362;-1.302;2023-05-19T10:35:23;101396.13;;;18.46;87.10
48652;BME280;34442;52.362;-1.302;2023-05-19T10:37:58;101393.91;;;18.54;89.96
48652;BME280;34442;52.362;-1.302;2023-05-19T10:40:29;101390.00;;;18.62;90.27
48652;BME280;34442;52.362;-1.302;2023-05-19T10:45:59;101396.06;;;18.64;90.43
48652;BME280;34442;52.362;-1.302;2023-05-19T10:48:25;101388.91;;;18.51;90.27
48652;BME280;34442;52.362;-1.302;2023-05-19T10:50:55;101393.88;;;18.43;90.05
48652;BME280;34442;52.362;-1.302;2023-05-19T10:53:20;101395.03;;;18.23;91.29
48652;BME280;34442;52.362;-1.302;2023-05-19T10:55:54;101388.09;;;18.09;89.99
48652;BME280;34442;52.362;-1.302;2023-05-19T11:01:13;101392.72;;;18.08;91.27
48652;BME280;34442;52.362;-1.302;2023-05-19T11:03:49;101394.91;;;18.30;90.03
48652;BME280;34442;52.362;-1.302;2023-05-19T11:06:31;101391.75;;;18.45;87.20
48652;BME280;34442;52.362;-1.302;2023-05-19T11:09:11;101386.97;;;18.70;89.31
48652;BME280;34442;52.362;-1.302;2023-05-19T11:11:51;101382.44;;;18.64;84.16
48652;BME280;34442;52.362;-1.302;2023-05-19T11:14:21;101385.88;;;18.71;87.33
48652;BME280;34442;52.362;-1.302;2023-05-19T11:16:49;101389.69;;;18.70;88.06
48652;BME280;34442;52.362;-1.302;2023-05-19T11:19:51;101391.97;;;18.43;81.81
48652;BME280;34442;52.362;-1.302;2023-05-19T11:22:16;101394.22;;;18.34;88.88
48652;BME280;34442;52.362;-1.302;2023-05-19T11:24:43;101401.66;;;18.39;89.44
48652;BME280;34442;52.362;-1.302;2023-05-19T11:27:18;101402.69;;;18.56;88.17
48652;BME280;34442;52.362;-1.302;2023-05-19T11:29:43;101403.31;;;18.70;83.85
48652;BME280;34442;52.362;-1.302;2023-05-19T11:32:10;101397.31;;;18.50;88.89
48652;BME280;34442;52.362;-1.302;2023-05-19T11:34:36;101399.69;;;18.46;89.29
48652;BME280;34442;52.362;-1.302;2023-05-19T11:37:03;101401.72;;;18.09;90.04
48652;BME280;34442;52.362;-1.302;2023-05-19T11:39:30;101396.94;;;18.23;89.96
48652;BME280;34442;52.362;-1.302;2023-05-19T11:41:56;101396.78;;;18.18;89.96
48652;BME280;34442;52.362;-1.302;2023-05-19T11:44:21;101397.25;;;18.15;89.89
48652;BME280;34442;52.362;-1.302;2023-05-19T11:46:47;101390.88;;;18.21;89.35
48652;BME280;34442;52.362;-1.302;2023-05-19T11:49:13;101393.41;;;18.46;88.91
48652;BME280;34442;52.362;-1.302;2023-05-19T11:51:42;101394.34;;;18.40;86.82
48652;BME280;34442;52.362;-1.302;2023-05-19T11:54:09;101399.41;;;18.24;87.70
48652;BME280;34442;52.362;-1.302;2023-05-19T11:56:39;101394.59;;;18.50;86.46
48652;BME280;34442;52.362;-1.302;2023-05-19T11:59:05;101391.88;;;18.50;88.39
48652;BME280;34442;52.362;-1.302;2023-05-19T12:01:31;101402.16;;;18.36;89.09
48652;BME280;34442;52.362;-1.302;2023-05-19T12:03:57;101402.19;;;18.48;88.62
48652;BME280;34442;52.362;-1.302;2023-05-19T12:06:24;101393.25;;;18.82;86.78
48652;BME280;34442;52.362;-1.302;2023-05-19T12:08:51;101386.50;;;18.85;86.90
48652;BME280;34442;52.362;-1.302;2023-05-19T12:11:17;101390.53;;;18.94;86.75
48652;BME280;34442;52.362;-1.302;2023-05-19T12:13:43;101380.56;;;18.88;87.39
48652;BME280;34442;52.362;-1.302;2023-05-19T12:16:08;101376.88;;;18.71;87.55
48652;BME280;34442;52.362;-1.302;2023-05-19T12:18:37;101367.97;;;18.64;87.78
48652;BME280;34442;52.362;-1.302;2023-05-19T12:21:03;101380.06;;;18.56;88.12
48652;BME280;34442;52.362;-1.302;2023-05-19T12:23:29;101373.44;;;18.52;87.50
48652;BME280;34442;52.362;-1.302;2023-05-19T12:25:56;101372.66;;;18.33;88.57
48652;BME280;34442;52.362;-1.302;2023-05-19T12:28:22;101370.03;;;18.15;89.01
48652;BME280;34442;52.362;-1.302;2023-05-19T12:30:49;101365.06;;;18.12;88.78
48652;BME280;34442;52.362;-1.302;2023-05-19T12:33:17;101372.47;;;18.04;89.90
48652;BME280;34442;52.362;-1.302;2023-05-19T12:35:44;101371.53;;;17.99;90.83
48652;BME280;34442;52.362;-1.302;2023-05-19T12:38:10;101379.41;;;17.70;92.49
48652;BME280;34442;52.362;-1.302;2023-05-19T12:40:36;101378.53;;;17.58;92.60
48652;BME280;34442;52.362;-1.302;2023-05-19T12:43:03;101378.75;;;17.38;92.91
48652;BME280;34442;52.362;-1.302;2023-05-19T12:45:35;101382.38;;;17.50;92.49
48652;BME280;34442;52.362;-1.302;2023-05-19T12:48:04;101374.44;;;17.67;91.75
48652;BME280;34442;52.362;-1.302;2023-05-19T12:50:36;101379.00;;;17.36;92.66